Washington, District of Columbia
Traffic Map
Current Weather Conditions
Washington, District of Columbia
Broken Clouds
Broken Clouds

Feels Like: 5°
Wind Chill: Ceiling: 7500
Heat Index: Visibility: 10mi
Dew Point: Wind: 10mph
Humidity: 58% Direction: 310° (NW)
Pressure: 30.05in Gusts: 0mph
Raw Report DataKDCA 271752Z 31009KT 10SM SCT032 BKN075 BKN250 08/00 A3005 RMK AO2 SLP177 60000 T00780000 10078 20039 55007
Traffic Incident Summary
Active as of:
Severity:
Category:
InformationThere was an issue retrieving the traffic information for this location. Please try a different location or try again shortly.
Advertisements
Track Severe Weather on mobile